Time;durP1;ratioP1;P1;durP2;ratioP2;P2;SDS_P1;SDS_P2;PMS_P1;PMS_P2;Temp;Humidity;BMP_temperature;BMP_pressure;BME280_temperature;BME280_humidity;BME280_pressure;Samples;Min_cycle;Max_cycle;Signal;HPM_P1;HPM_P2
2021/09/04 00:00:12;;;;;;;5.10;2.53;;;15.50;99.90;;;;;;4965157;28;20603;-88
2021/09/04 00:02:38;;;;;;;4.23;2.00;;;15.50;99.90;;;;;;4981131;28;20542;-86
2021/09/04 00:05:05;;;;;;;3.33;1.83;;;15.50;99.90;;;;;;4964659;28;20213;-86
2021/09/04 00:07:32;;;;;;;2.70;1.47;;;15.50;99.90;;;;;;4965124;28;20583;-87
2021/09/04 00:09:58;;;;;;;3.97;2.67;;;15.50;99.90;;;;;;4965115;28;20203;-86
2021/09/04 00:12:26;;;;;;;6.10;2.13;;;15.50;99.90;;;;;;4982217;28;20185;-87
2021/09/04 00:14:53;;;;;;;5.60;1.57;;;15.50;99.90;;;;;;4965051;28;20741;-85
2021/09/04 00:17:19;;;;;;;4.63;1.50;;;15.50;99.90;;;;;;4965551;28;20247;-87
2021/09/04 00:19:45;;;;;;;5.23;1.57;;;15.50;99.90;;;;;;4948949;28;20236;-86
2021/09/04 00:22:11;;;;;;;2.77;1.53;;;15.50;99.90;;;;;;4964035;28;20228;-86
2021/09/04 00:24:36;;;;;;;3.37;1.90;;;15.50;99.90;;;;;;4964235;28;20219;-88
2021/09/04 00:27:02;;;;;;;2.27;1.40;;;15.50;99.90;;;;;;4948951;28;20224;-87
2021/09/04 00:29:28;;;;;;;1.60;1.40;;;15.40;99.90;;;;;;4964407;28;20649;-87
2021/09/04 00:31:54;;;;;;;2.77;1.37;;;15.40;99.90;;;;;;4964446;28;20683;-85
2021/09/04 00:34:20;;;;;;;3.93;1.60;;;15.50;99.90;;;;;;4980557;28;20236;-89
2021/09/04 00:36:46;;;;;;;3.27;1.60;;;15.50;99.90;;;;;;4964445;28;20275;-87
2021/09/04 00:39:12;;;;;;;3.30;1.60;;;15.40;99.90;;;;;;4964441;28;20232;-86
2021/09/04 00:41:37;;;;;;;3.67;1.93;;;15.40;99.90;;;;;;4964320;28;20770;-89
2021/09/04 00:44:05;;;;;;;4.30;1.97;;;15.40;99.90;;;;;;4980946;28;20228;-86
2021/09/04 00:46:31;;;;;;;2.77;1.80;;;15.30;99.90;;;;;;4980395;28;20247;-86
2021/09/04 00:48:58;;;;;;;5.13;2.47;;;15.30;99.90;;;;;;4963685;28;20189;-86
2021/09/04 00:51:24;;;;;;;8.53;2.10;;;15.20;99.90;;;;;;4964424;28;20279;-86
2021/09/04 00:53:51;;;;;;;3.60;1.83;;;15.20;99.90;;;;;;4963797;28;20307;-86
2021/09/04 00:56:17;;;;;;;2.80;1.57;;;15.20;99.90;;;;;;4964690;28;20212;-85
2021/09/04 00:58:43;;;;;;;5.00;1.93;;;15.20;99.90;;;;;;4979809;28;20237;-87
2021/09/04 01:01:09;;;;;;;2.97;1.33;;;15.20;99.90;;;;;;4964201;28;20199;-88
2021/09/04 01:03:35;;;;;;;4.13;1.80;;;15.30;99.90;;;;;;4964991;28;20610;-86
2021/09/04 01:06:00;;;;;;;3.43;1.77;;;15.20;99.90;;;;;;4964873;28;20233;-85
2021/09/04 01:08:26;;;;;;;3.40;1.50;;;15.30;99.90;;;;;;4980648;28;20228;-87
2021/09/04 01:10:53;;;;;;;3.77;1.60;;;15.30;99.90;;;;;;4978108;28;20734;-86
2021/09/04 01:13:20;;;;;;;2.00;1.80;;;15.20;99.90;;;;;;4962013;28;20216;-85
2021/09/04 01:15:47;;;;;;;2.07;1.23;;;15.20;99.90;;;;;;4978205;28;20193;-86
2021/09/04 01:18:13;;;;;;;2.23;1.53;;;15.30;99.90;;;;;;4977759;28;20232;-88
2021/09/04 01:20:38;;;;;;;4.20;1.77;;;15.30;99.90;;;;;;4962356;28;20227;-88
2021/09/04 01:23:05;;;;;;;2.20;1.80;;;15.30;99.90;;;;;;4962847;28;20247;-88
2021/09/04 01:25:32;;;;;;;2.23;2.03;;;15.30;99.90;;;;;;4963797;28;20307;-87
2021/09/04 01:28:00;;;;;;;4.10;1.33;;;15.30;99.90;;;;;;4963701;28;21051;-86
2021/09/04 01:30:27;;;;;;;2.00;1.40;;;15.20;99.90;;;;;;4963805;28;20196;-88
2021/09/04 01:32:52;;;;;;;2.07;1.13;;;15.20;99.90;;;;;;4963943;28;20259;-86
2021/09/04 01:35:21;;;;;;;4.63;1.53;;;15.30;99.90;;;;;;4963891;28;20251;-88
2021/09/04 01:37:48;;;;;;;2.63;1.57;;;15.20;99.90;;;;;;4979186;28;20355;-86
2021/09/04 01:40:15;;;;;;;2.87;1.53;;;15.20;99.90;;;;;;4963191;28;20352;-88
2021/09/04 01:42:46;;;;;;;3.10;1.40;;;15.20;99.90;;;;;;4964003;28;20236;-88
2021/09/04 01:45:13;;;;;;;6.53;1.40;;;15.10;99.90;;;;;;4964888;28;20558;-87
2021/09/04 01:47:39;;;;;;;4.77;2.10;;;15.10;99.90;;;;;;4963287;28;20247;-87
2021/09/04 01:50:09;;;;;;;2.20;1.20;;;15.20;99.90;;;;;;4964342;28;20252;-87
2021/09/04 01:52:36;;;;;;;1.90;1.40;;;15.10;99.90;;;;;;4964962;28;20641;-87
2021/09/04 01:55:03;;;;;;;2.90;1.33;;;15.20;99.90;;;;;;4964137;28;20201;-87
2021/09/04 01:57:29;;;;;;;2.50;1.00;;;15.20;99.90;;;;;;4983987;28;20625;-88
2021/09/04 01:59:55;;;;;;;4.13;1.57;;;15.10;99.90;;;;;;4983874;28;20752;-88
2021/09/04 02:02:20;;;;;;;2.13;1.17;;;15.10;99.90;;;;;;4984164;28;20287;-87
2021/09/04 02:04:46;;;;;;;3.03;1.10;;;15.10;99.90;;;;;;4967038;28;20226;-87
2021/09/04 02:07:12;;;;;;;1.67;1.40;;;15.10;99.90;;;;;;4967144;28;20205;-89
2021/09/04 02:09:37;;;;;;;5.70;1.53;;;15.10;99.90;;;;;;4983915;28;20673;-86
2021/09/04 02:12:04;;;;;;;4.80;1.80;;;15.10;99.90;;;;;;4967208;28;20674;-87
2021/09/04 02:14:30;;;;;;;4.57;1.70;;;15.10;99.90;;;;;;4966929;28;20291;-88
2021/09/04 02:16:56;;;;;;;1.47;1.17;;;15.10;99.90;;;;;;4967159;28;20307;-87
2021/09/04 02:19:21;;;;;;;2.07;1.37;;;15.10;99.90;;;;;;4982534;28;20236;-87
2021/09/04 02:21:47;;;;;;;1.77;1.10;;;15.10;99.90;;;;;;4983107;28;21131;-89
2021/09/04 02:24:13;;;;;;;2.10;1.23;;;15.10;99.90;;;;;;4967479;28;20967;-87
2021/09/04 02:26:39;;;;;;;2.87;1.37;;;15.10;99.90;;;;;;4982832;28;20725;-86
2021/09/04 02:29:04;;;;;;;1.70;1.60;;;15.10;99.90;;;;;;4967666;28;20230;-89
2021/09/04 02:31:30;;;;;;;2.57;1.57;;;15.10;99.90;;;;;;4975870;28;20220;-88
2021/09/04 02:33:56;;;;;;;2.87;1.70;;;15.10;99.90;;;;;;4966792;28;20193;-87
2021/09/04 02:36:23;;;;;;;2.30;1.50;;;15.10;99.90;;;;;;4967140;28;20226;-87
2021/09/04 02:38:50;;;;;;;3.73;1.23;;;15.10;99.90;;;;;;4982487;28;20263;-86
2021/09/04 02:41:16;;;;;;;2.33;1.27;;;15.10;99.90;;;;;;4982227;28;20256;-87
2021/09/04 02:43:42;;;;;;;1.80;1.30;;;15.10;99.90;;;;;;4983306;28;20716;-85
2021/09/04 02:46:09;;;;;;;1.83;1.20;;;15.10;99.90;;;;;;4982169;28;20192;-87
2021/09/04 02:48:35;;;;;;;1.77;1.10;;;15.10;99.90;;;;;;4981010;28;20453;-86
2021/09/04 02:51:01;;;;;;;1.57;1.20;;;15.10;99.90;;;;;;4980040;28;20742;-86
2021/09/04 02:53:27;;;;;;;5.27;1.57;;;15.10;99.90;;;;;;4980279;28;20228;-88
2021/09/04 02:55:53;;;;;;;2.20;1.30;;;15.10;99.90;;;;;;4963762;28;21164;-86
2021/09/04 02:58:19;;;;;;;2.07;1.23;;;15.20;99.90;;;;;;4965305;28;20240;-88
2021/09/04 03:00:45;;;;;;;2.97;1.53;;;15.10;99.90;;;;;;4967140;28;20189;-88
2021/09/04 03:03:10;;;;;;;4.20;1.87;;;15.10;99.90;;;;;;4966109;28;20220;-86
2021/09/04 03:05:36;;;;;;;3.00;1.97;;;15.10;99.90;;;;;;4966177;28;20221;-88
2021/09/04 03:08:03;;;;;;;1.30;1.13;;;15.10;99.90;;;;;;4965473;28;20694;-86
2021/09/04 03:10:29;;;;;;;4.10;1.43;;;15.10;99.90;;;;;;4982036;28;20223;-87
2021/09/04 03:12:56;;;;;;;2.83;1.50;;;15.10;99.90;;;;;;4966749;28;20196;-88
2021/09/04 03:15:22;;;;;;;3.73;1.97;;;15.10;99.90;;;;;;4966479;28;20208;-86
2021/09/04 03:17:48;;;;;;;5.73;1.77;;;15.10;99.90;;;;;;4965674;28;20232;-86
2021/09/04 03:20:13;;;;;;;3.53;1.60;;;15.10;99.90;;;;;;4966917;28;20244;-88
2021/09/04 03:22:39;;;;;;;2.20;1.57;;;15.10;99.90;;;;;;4966314;28;20224;-87
2021/09/04 03:25:06;;;;;;;3.17;1.70;;;15.10;99.90;;;;;;4965515;28;20341;-89
2021/09/04 03:27:32;;;;;;;3.30;2.17;;;15.00;99.90;;;;;;4966254;28;20287;-89
2021/09/04 03:29:59;;;;;;;2.73;1.50;;;15.00;99.90;;;;;;4981618;28;20714;-89
2021/09/04 03:32:25;;;;;;;2.23;1.10;;;15.00;99.90;;;;;;4965137;28;20220;-87
2021/09/04 03:35:00;;;;;;;4.13;1.47;;;15.00;99.90;;;;;;4965847;28;20251;-88
2021/09/04 03:37:26;;;;;;;2.27;1.60;;;15.00;99.90;;;;;;4980941;28;20307;-88
2021/09/04 03:39:52;;;;;;;2.67;1.27;;;15.00;99.90;;;;;;4966057;28;20217;-88
2021/09/04 03:42:17;;;;;;;2.70;1.50;;;15.00;99.90;;;;;;4965007;28;20268;-88
2021/09/04 03:44:43;;;;;;;1.07;0.90;;;15.00;99.90;;;;;;4981440;28;20719;-87
2021/09/04 03:47:09;;;;;;;2.53;1.13;;;15.00;99.90;;;;;;4966687;28;20232;-87
2021/09/04 03:49:35;;;;;;;4.63;2.07;;;15.00;99.90;;;;;;4965508;28;20744;-88
2021/09/04 03:52:01;;;;;;;4.30;2.10;;;15.00;99.90;;;;;;4965173;28;20283;-86
2021/09/04 03:54:26;;;;;;;8.07;2.20;;;15.00;99.90;;;;;;4965363;28;20197;-87
2021/09/04 03:56:55;;;;;;;5.57;1.70;;;14.90;99.90;;;;;;4964811;28;20592;-87
2021/09/04 03:59:21;;;;;;;2.37;1.40;;;14.90;99.90;;;;;;4965062;28;20272;-86
2021/09/04 04:01:48;;;;;;;1.63;0.90;;;14.90;99.90;;;;;;4981392;28;20586;-88
2021/09/04 04:04:13;;;;;;;1.33;1.20;;;14.90;99.90;;;;;;4963553;28;20235;-87
2021/09/04 04:06:39;;;;;;;2.97;1.60;;;14.90;99.90;;;;;;4963931;28;20746;-87
2021/09/04 04:09:05;;;;;;;2.00;1.27;;;14.90;99.90;;;;;;4962965;28;21115;-86
2021/09/04 04:11:30;;;;;;;1.77;1.10;;;14.90;99.90;;;;;;4979556;28;20325;-90
2021/09/04 04:13:56;;;;;;;3.50;1.60;;;15.00;99.90;;;;;;4964378;28;20224;-87
2021/09/04 04:16:22;;;;;;;2.53;1.23;;;15.00;99.90;;;;;;4981460;28;20890;-87
2021/09/04 04:18:48;;;;;;;1.70;1.17;;;15.10;99.90;;;;;;4964747;28;20224;-88
2021/09/04 04:21:14;;;;;;;4.77;1.13;;;15.00;99.90;;;;;;4964477;28;20891;-85
2021/09/04 04:23:40;;;;;;;2.27;1.50;;;15.10;99.90;;;;;;4964599;28;20216;-87
2021/09/04 04:26:06;;;;;;;1.10;0.90;;;15.20;99.90;;;;;;4964909;28;20247;-87
2021/09/04 04:28:31;;;;;;;1.63;1.07;;;15.20;99.90;;;;;;4965067;28;20304;-87
2021/09/04 04:30:57;;;;;;;1.33;1.23;;;15.30;99.90;;;;;;4964905;28;20653;-87
2021/09/04 04:33:23;;;;;;;4.47;1.23;;;15.20;99.90;;;;;;4966046;28;20645;-86
2021/09/04 04:35:49;;;;;;;1.73;1.20;;;15.10;99.90;;;;;;4967072;28;20255;-89
2021/09/04 04:38:15;;;;;;;2.20;1.00;;;15.10;99.90;;;;;;4964362;28;20866;-88
2021/09/04 04:40:41;;;;;;;13.47;1.50;;;15.10;99.90;;;;;;4965103;28;20674;-88
2021/09/04 04:43:06;;;;;;;3.90;1.67;;;15.10;99.90;;;;;;4964554;28;20581;-86
2021/09/04 04:45:32;;;;;;;3.07;1.93;;;15.10;99.90;;;;;;4966369;28;20658;-87
2021/09/04 04:47:58;;;;;;;4.57;1.60;;;15.10;99.90;;;;;;4964391;28;20216;-86
2021/09/04 04:50:23;;;;;;;2.10;0.73;;;15.10;99.90;;;;;;4965140;28;20882;-86
2021/09/04 04:52:49;;;;;;;2.03;1.33;;;15.10;99.90;;;;;;4965471;28;20227;-86
2021/09/04 04:55:15;;;;;;;6.23;1.13;;;15.10;99.90;;;;;;4981393;28;20212;-87
2021/09/04 04:57:41;;;;;;;1.87;1.13;;;15.10;99.90;;;;;;4966325;28;20246;-87
2021/09/04 05:00:07;;;;;;;1.93;1.27;;;15.10;99.90;;;;;;4962889;28;20355;-86
2021/09/04 05:02:33;;;;;;;1.80;1.30;;;15.20;99.90;;;;;;4963215;28;20319;-87
2021/09/04 05:04:59;;;;;;;2.80;1.00;;;15.10;99.90;;;;;;4930480;28;20746;-85
2021/09/04 05:07:24;;;;;;;1.00;0.90;;;15.20;99.90;;;;;;4979441;28;20311;-86
2021/09/04 05:09:50;;;;;;;2.07;1.40;;;15.10;99.90;;;;;;4964572;28;20200;-85
2021/09/04 05:12:16;;;;;;;1.10;0.83;;;15.10;99.90;;;;;;4980515;28;20670;-86
2021/09/04 05:14:41;;;;;;;2.57;1.27;;;15.10;99.90;;;;;;4966568;28;20212;-86
2021/09/04 05:17:07;;;;;;;1.90;1.30;;;15.10;99.90;;;;;;4964449;28;20224;-88
2021/09/04 05:19:33;;;;;;;3.40;1.00;;;15.10;99.90;;;;;;4965166;28;20694;-87
2021/09/04 05:22:00;;;;;;;2.33;1.27;;;15.00;99.90;;;;;;4965043;28;20627;-86
2021/09/04 05:24:25;;;;;;;1.37;0.90;;;15.10;99.90;;;;;;4981596;28;20477;-86
2021/09/04 05:26:51;;;;;;;1.50;1.07;;;15.10;99.90;;;;;;4980850;28;20331;-87
2021/09/04 05:29:17;;;;;;;3.10;1.23;;;15.10;99.90;;;;;;4965703;28;20224;-87
2021/09/04 05:31:43;;;;;;;1.83;0.80;;;15.20;99.90;;;;;;4968817;28;20691;-87
2021/09/04 05:34:09;;;;;;;2.27;0.97;;;15.20;99.90;;;;;;4967958;28;20199;-88
2021/09/04 05:36:35;;;;;;;2.60;1.10;;;15.20;99.90;;;;;;4969051;28;20197;-87
2021/09/04 05:39:00;;;;;;;5.27;2.00;;;15.20;99.90;;;;;;4967934;28;20239;-88
2021/09/04 05:41:26;;;;;;;3.07;1.37;;;15.30;99.90;;;;;;4968302;28;20237;-86
2021/09/04 05:43:52;;;;;;;6.23;1.60;;;15.40;99.90;;;;;;4968667;28;20216;-85
2021/09/04 05:46:18;;;;;;;2.03;0.90;;;15.40;99.90;;;;;;4967862;28;20221;-86
2021/09/04 05:48:44;;;;;;;1.30;1.20;;;15.40;99.90;;;;;;4970374;28;20193;-85
2021/09/04 05:51:09;;;;;;;3.77;1.30;;;15.50;99.90;;;;;;4983752;28;20750;-86
2021/09/04 05:53:38;;;;;;;1.20;0.90;;;15.50;99.90;;;;;;4967559;28;20231;-85
2021/09/04 05:56:04;;;;;;;3.50;1.80;;;15.60;99.90;;;;;;4967792;28;20226;-86
2021/09/04 05:58:30;;;;;;;1.27;1.10;;;15.60;99.90;;;;;;4968742;28;20240;-86
2021/09/04 06:00:56;;;;;;;1.40;1.00;;;15.60;99.90;;;;;;4968413;28;20755;-87
2021/09/04 06:03:21;;;;;;;4.83;1.17;;;15.70;99.90;;;;;;4969126;28;20251;-88
2021/09/04 06:05:47;;;;;;;3.87;1.20;;;15.70;99.90;;;;;;4969664;28;20204;-85
2021/09/04 06:08:13;;;;;;;3.13;0.93;;;15.70;99.90;;;;;;4985463;28;20232;-88
2021/09/04 06:10:39;;;;;;;1.07;0.90;;;15.80;99.90;;;;;;4970344;28;20288;-87
2021/09/04 06:13:04;;;;;;;2.80;1.20;;;15.90;99.90;;;;;;4985944;28;20684;-87
2021/09/04 06:15:30;;;;;;;3.33;1.67;;;16.00;99.90;;;;;;4954236;28;20758;-87
2021/09/04 06:17:56;;;;;;;1.47;1.37;;;16.00;99.90;;;;;;4970398;28;20701;-88
2021/09/04 06:20:22;;;;;;;4.13;1.37;;;16.10;99.90;;;;;;4969422;28;20709;-87
2021/09/04 06:22:47;;;;;;;1.60;1.37;;;16.10;99.90;;;;;;4969695;28;20228;-86
2021/09/04 06:25:13;;;;;;;1.47;1.00;;;16.10;99.90;;;;;;4970078;28;20243;-89
2021/09/04 06:27:39;;;;;;;2.97;1.27;;;16.10;99.90;;;;;;4968524;28;20581;-86
2021/09/04 06:30:06;;;;;;;1.93;1.17;;;16.00;99.90;;;;;;4983548;28;20248;-87
2021/09/04 06:32:32;;;;;;;1.60;1.00;;;16.00;99.90;;;;;;4968466;28;20228;-88
2021/09/04 06:34:58;;;;;;;4.33;1.53;;;15.90;99.90;;;;;;4968095;28;20239;-89
2021/09/04 06:37:24;;;;;;;1.47;1.30;;;15.90;99.90;;;;;;4985570;28;20616;-88
2021/09/04 06:39:50;;;;;;;2.97;1.30;;;16.00;99.90;;;;;;4969337;28;20236;-89
2021/09/04 06:42:15;;;;;;;3.67;1.17;;;16.00;99.90;;;;;;4968335;28;20314;-88
2021/09/04 06:44:41;;;;;;;3.00;1.30;;;16.00;99.90;;;;;;4967620;28;20228;-90
2021/09/04 06:47:07;;;;;;;1.60;1.30;;;16.00;99.90;;;;;;4975943;28;20856;-90
2021/09/04 06:49:33;;;;;;;2.10;1.83;;;16.00;99.90;;;;;;4984309;28;20255;-90
2021/09/04 06:51:59;;;;;;;2.03;1.43;;;16.10;99.90;;;;;;4971302;28;20261;-89
2021/09/04 06:54:24;;;;;;;2.27;1.43;;;16.20;99.90;;;;;;4973761;28;20477;-93
2021/09/04 06:56:51;;;;;;;2.60;1.10;;;16.20;99.90;;;;;;4975701;28;20619;-90
2021/09/04 06:59:17;;;;;;;2.57;1.00;;;16.30;99.90;;;;;;4991733;28;20240;-88
2021/09/04 07:01:43;;;;;;;1.20;1.10;;;16.30;99.90;;;;;;4972343;28;20237;-90
2021/09/04 07:04:12;;;;;;;1.30;1.13;;;16.50;99.90;;;;;;4970562;28;20231;-89
2021/09/04 07:06:38;;;;;;;2.20;1.77;;;16.60;99.90;;;;;;4973008;28;20181;-90
2021/09/04 07:09:04;;;;;;;5.63;1.70;;;16.60;99.90;;;;;;4969874;28;20228;-88
2021/09/04 07:11:30;;;;;;;2.77;1.23;;;16.70;99.90;;;;;;4971831;28;20561;-88
2021/09/04 07:13:56;;;;;;;2.03;1.33;;;16.80;99.90;;;;;;4968340;28;20225;-88
2021/09/04 07:16:22;;;;;;;4.27;1.43;;;17.00;99.90;;;;;;4969091;28;20224;-90
2021/09/04 07:18:48;;;;;;;1.90;0.93;;;17.10;99.90;;;;;;4968153;28;20274;-88
2021/09/04 07:21:14;;;;;;;4.30;0.80;;;17.00;99.90;;;;;;4967926;28;20625;-91
2021/09/04 07:23:40;;;;;;;2.80;1.77;;;17.00;99.90;;;;;;4966909;28;20212;-86
2021/09/04 07:26:06;;;;;;;4.90;1.47;;;16.90;99.90;;;;;;4966807;28;20226;-91
2021/09/04 07:28:32;;;;;;;4.73;0.97;;;16.90;99.90;;;;;;4966361;28;20226;-90
2021/09/04 07:31:00;;;;;;;4.43;0.90;;;16.80;99.90;;;;;;4975232;28;20280;-92
2021/09/04 07:33:27;;;;;;;0.97;0.90;;;16.80;99.90;;;;;;4966723;28;20180;-92
2021/09/04 07:35:53;;;;;;;1.50;1.07;;;16.90;99.90;;;;;;4965031;28;20586;-93
2021/09/04 07:38:20;;;;;;;4.50;1.10;;;17.00;99.90;;;;;;4965531;28;20518;-93
2021/09/04 07:40:46;;;;;;;3.17;1.33;;;16.90;99.90;;;;;;4964568;28;20241;-88
2021/09/04 07:43:13;;;;;;;2.73;1.30;;;16.90;99.90;;;;;;4964584;28;20196;-89
2021/09/04 07:45:41;;;;;;;0.97;0.90;;;17.10;99.90;;;;;;4965918;28;20189;-93
2021/09/04 07:48:07;;;;;;;1.50;1.00;;;17.30;99.90;;;;;;4965405;28;20223;-86
2021/09/04 07:50:34;;;;;;;2.00;0.93;;;17.50;99.90;;;;;;4967127;28;20247;-91
2021/09/04 07:53:00;;;;;;;2.23;1.20;;;17.50;99.90;;;;;;4982550;28;20299;-88
2021/09/04 07:55:28;;;;;;;5.17;1.40;;;17.30;99.90;;;;;;4965697;28;20221;-88
2021/09/04 07:57:54;;;;;;;2.60;1.10;;;17.30;99.90;;;;;;4951463;28;20247;-90
2021/09/04 08:00:20;;;;;;;2.47;0.90;;;17.20;99.90;;;;;;4977065;28;20240;-92
2021/09/04 08:02:47;;;;;;;1.73;0.90;;;17.20;99.90;;;;;;4966327;28;20225;-89
2021/09/04 08:05:13;;;;;;;1.07;0.90;;;17.20;99.90;;;;;;4965443;28;20228;-92
2021/09/04 08:07:39;;;;;;;1.83;1.27;;;17.20;99.90;;;;;;4982763;28;20235;-90
2021/09/04 08:10:06;;;;;;;4.23;1.23;;;17.10;99.90;;;;;;4966477;28;20199;-91
2021/09/04 08:12:32;;;;;;;1.10;0.93;;;17.10;99.90;;;;;;4983212;28;20404;-89
2021/09/04 08:14:58;;;;;;;0.97;0.77;;;17.10;99.90;;;;;;4967006;28;20696;-90
2021/09/04 08:17:23;;;;;;;1.93;1.00;;;17.20;99.90;;;;;;4981529;28;20577;-88
2021/09/04 08:19:49;;;;;;;2.60;1.37;;;17.30;99.90;;;;;;4965801;28;20228;-89
2021/09/04 08:22:15;;;;;;;2.93;1.50;;;17.40;99.90;;;;;;4983215;28;20184;-90
2021/09/04 08:24:44;;;;;;;1.53;1.17;;;17.40;99.90;;;;;;4968680;28;20196;-92
2021/09/04 08:27:09;;;;;;;1.00;0.70;;;17.40;99.90;;;;;;4966694;28;20233;-90
2021/09/04 08:29:35;;;;;;;1.70;1.10;;;17.50;99.90;;;;;;4968439;28;20236;-89
2021/09/04 08:32:01;;;;;;;4.80;1.00;;;17.60;99.90;;;;;;4968199;28;20567;-90
2021/09/04 08:34:27;;;;;;;26.43;3.50;;;17.70;99.90;;;;;;4968007;28;20307;-89
2021/09/04 08:36:52;;;;;;;3.20;1.73;;;17.70;99.90;;;;;;4966469;28;20192;-87
2021/09/04 08:39:19;;;;;;;5.50;2.00;;;17.90;99.90;;;;;;4964445;28;20612;-91
2021/09/04 08:41:45;;;;;;;5.47;3.00;;;18.00;99.90;;;;;;4966347;28;20232;-90
2021/09/04 08:44:11;;;;;;;2.83;1.50;;;18.10;99.90;;;;;;4968187;28;20252;-91
2021/09/04 08:46:38;;;;;;;1.87;1.37;;;18.10;99.90;;;;;;4967122;28;20208;-89
2021/09/04 08:49:08;;;;;;;4.97;1.20;;;18.10;99.90;;;;;;4984437;28;20176;-88
2021/09/04 08:51:34;;;;;;;1.20;1.10;;;18.30;99.90;;;;;;4968115;28;20646;-87
2021/09/04 08:54:00;;;;;;;1.33;0.97;;;18.60;99.90;;;;;;4967444;28;20227;-89
2021/09/04 08:56:26;;;;;;;2.23;1.20;;;18.80;99.90;;;;;;4966884;28;20224;-93
2021/09/04 08:58:52;;;;;;;1.93;1.30;;;18.70;99.90;;;;;;4967708;28;20319;-90
2021/09/04 09:01:23;;;;;;;3.13;1.20;;;18.90;99.90;;;;;;4967642;28;20279;-89
2021/09/04 09:03:51;;;;;;;2.60;1.47;;;18.70;99.90;;;;;;4983289;28;20259;-88
2021/09/04 09:06:30;;;;;;;1.23;1.13;;;18.60;99.90;;;;;;4973497;28;20219;-88
2021/09/04 09:08:56;;;;;;;2.03;1.40;;;18.60;99.90;;;;;;4974434;28;20218;-87
2021/09/04 09:11:23;;;;;;;3.80;1.20;;;18.70;99.90;;;;;;4973101;28;20216;-88
2021/09/04 09:13:55;;;;;;;3.70;1.33;;;19.00;99.90;;;;;;4957621;28;20224;-89
2021/09/04 09:16:23;;;;;;;5.73;1.67;;;18.70;99.90;;;;;;4973423;28;20653;-91
2021/09/04 09:19:00;;;;;;;8.87;1.47;;;18.50;99.90;;;;;;4974316;28;20220;-89
2021/09/04 09:21:33;;;;;;;3.60;1.43;;;18.60;99.90;;;;;;4972982;28;20208;-87
2021/09/04 09:24:17;;;;;;;2.03;1.33;;;18.90;99.90;;;;;;4989744;28;20803;-87
2021/09/04 09:26:54;;;;;;;2.13;1.37;;;19.20;99.90;;;;;;4973884;28;20212;-84
2021/09/04 09:29:30;;;;;;;1.73;1.40;;;19.40;99.90;;;;;;4972091;28;20224;-88
2021/09/04 09:32:13;;;;;;;1.57;1.47;;;19.10;99.90;;;;;;4972291;28;20287;-88
2021/09/04 09:34:42;;;;;;;9.90;1.60;;;19.00;99.90;;;;;;4962855;28;20220;-87
2021/09/04 09:37:09;;;;;;;6.13;2.30;;;19.60;99.90;;;;;;4972083;28;20889;-89
2021/09/04 09:39:38;;;;;;;2.60;1.30;;;20.20;99.90;;;;;;4972878;28;20224;-88
2021/09/04 09:42:05;;;;;;;4.33;1.90;;;20.30;99.90;;;;;;4971607;28;20323;-91
2021/09/04 09:44:34;;;;;;;4.83;1.60;;;20.60;99.90;;;;;;4972057;28;20224;-88
2021/09/04 09:47:09;;;;;;;2.40;1.67;;;20.20;99.90;;;;;;4971792;28;20220;-88
2021/09/04 09:49:43;;;;;;;1.70;1.43;;;20.20;99.90;;;;;;4973483;28;20755;-87
2021/09/04 09:52:11;;;;;;;4.23;1.43;;;19.60;99.90;;;;;;4986715;28;20192;-88
2021/09/04 09:54:38;;;;;;;4.23;1.30;;;19.60;99.90;;;;;;4971805;28;20200;-89
2021/09/04 09:57:06;;;;;;;1.83;1.40;;;19.90;99.90;;;;;;4970756;28;20220;-90
2021/09/04 09:59:32;;;;;;;4.33;1.70;;;20.10;99.90;;;;;;4986293;28;20235;-88
2021/09/04 10:02:09;;;;;;;2.93;1.70;;;19.80;99.90;;;;;;4986969;28;20250;-88
2021/09/04 10:04:36;;;;;;;4.80;1.50;;;19.70;99.90;;;;;;4970055;28;20613;-87
2021/09/04 10:07:04;;;;;;;3.90;1.67;;;19.50;99.90;;;;;;4968486;28;20185;-88
2021/09/04 10:09:30;;;;;;;1.80;1.30;;;19.50;99.90;;;;;;4984365;28;20238;-88
2021/09/04 10:11:56;;;;;;;3.80;1.67;;;19.50;99.90;;;;;;4967249;28;20220;-90
2021/09/04 10:14:23;;;;;;;2.83;1.30;;;19.50;99.90;;;;;;4984311;28;20228;-90
2021/09/04 10:16:52;;;;;;;5.30;1.80;;;19.50;99.90;;;;;;4948684;28;20225;-90
2021/09/04 10:19:21;;;;;;;2.10;1.37;;;19.60;99.90;;;;;;4984859;28;20625;-85
2021/09/04 10:21:47;;;;;;;4.83;2.53;;;19.50;99.90;;;;;;4967765;28;20195;-87
2021/09/04 10:24:13;;;;;;;6.13;2.33;;;19.70;99.90;;;;;;4983113;28;20220;-88
2021/09/04 10:26:40;;;;;;;5.20;2.00;;;19.40;99.90;;;;;;4967178;28;20698;-88
2021/09/04 10:29:19;;;;;;;3.60;2.07;;;19.80;99.90;;;;;;4967310;28;20231;-87
2021/09/04 10:31:48;;;;;;;6.07;2.03;;;20.20;99.90;;;;;;4966581;28;20263;-88
2021/09/04 10:34:24;;;;;;;3.33;1.77;;;20.80;99.90;;;;;;4967567;28;20757;-89
2021/09/04 10:37:18;;;;;;;4.10;2.63;;;20.70;99.90;;;;;;4983061;28;20537;-89
2021/09/04 10:39:47;;;;;;;7.10;3.00;;;20.70;99.90;;;;;;4966393;28;20698;-91
2021/09/04 10:42:15;;;;;;;4.47;2.27;;;21.10;99.90;;;;;;4966355;28;20244;-89
2021/09/04 10:44:42;;;;;;;4.50;1.60;;;20.30;99.90;;;;;;4982471;28;20589;-90
2021/09/04 10:47:10;;;;;;;3.70;2.33;;;20.50;99.90;;;;;;4967160;28;20605;-88
2021/09/04 10:49:48;;;;;;;5.50;2.23;;;19.90;99.90;;;;;;4983219;28;20742;-89
2021/09/04 10:52:14;;;;;;;3.07;1.97;;;19.90;99.90;;;;;;4982814;28;20197;-91
2021/09/04 10:54:59;;;;;;;2.33;1.93;;;20.70;99.90;;;;;;4967902;28;20189;-89
2021/09/04 10:57:25;;;;;;;6.00;3.27;;;20.90;99.90;;;;;;4966781;28;20303;-88
2021/09/04 11:00:05;;;;;;;3.67;2.37;;;21.30;99.90;;;;;;4983717;28;20291;-92
2021/09/04 11:02:39;;;;;;;6.90;2.97;;;21.60;99.90;;;;;;4967231;28;20329;-88
2021/09/04 11:05:24;;;;;;;4.30;2.07;;;21.30;99.90;;;;;;4966253;28;20216;-88
2021/09/04 11:08:03;;;;;;;7.90;3.10;;;22.00;99.90;;;;;;4966687;28;20621;-87
2021/09/04 11:10:30;;;;;;;21.60;6.10;;;21.60;99.90;;;;;;4981860;28;20254;-88
2021/09/04 11:13:11;;;;;;;3.90;2.10;;;22.20;99.90;;;;;;4966571;28;20193;-87
2021/09/04 11:15:38;;;;;;;2.80;2.07;;;22.00;99.90;;;;;;4967003;28;20228;-88
2021/09/04 11:18:04;;;;;;;10.37;4.13;;;22.10;99.90;;;;;;4981853;28;20216;-88
2021/09/04 11:20:30;;;;;;;6.73;3.23;;;22.40;99.90;;;;;;4965629;28;20243;-89
2021/09/04 11:22:57;;;;;;;4.17;2.67;;;22.70;99.90;;;;;;4966109;28;20678;-87
2021/09/04 11:25:23;;;;;;;5.60;2.40;;;22.30;99.90;;;;;;4965532;28;20244;-88
2021/09/04 11:27:51;;;;;;;7.67;2.83;;;21.90;99.90;;;;;;4966131;28;20212;-90
2021/09/04 11:30:20;;;;;;;6.87;2.93;;;21.80;99.90;;;;;;4966719;28;20224;-88
2021/09/04 11:32:47;;;;;;;7.65;2.83;;;21.20;99.90;;;;;;4966346;28;20302;-85
2021/09/04 11:35:13;;;;;;;3.23;2.40;;;21.00;99.90;;;;;;4965071;28;20224;-87
2021/09/04 11:37:40;;;;;;;5.27;2.40;;;21.50;99.90;;;;;;4965340;28;20229;-91
2021/09/04 11:40:17;;;;;;;6.23;2.60;;;21.60;99.90;;;;;;4965530;28;20615;-85
2021/09/04 11:42:47;;;;;;;3.67;2.47;;;20.90;99.90;;;;;;4965690;28;20228;-87
2021/09/04 11:45:16;;;;;;;6.67;3.03;;;20.50;99.90;;;;;;4965178;28;20247;-85
2021/09/04 11:47:45;;;;;;;6.27;3.17;;;20.50;99.90;;;;;;4980810;28;20221;-86
2021/09/04 11:50:22;;;;;;;5.73;2.60;;;20.40;99.90;;;;;;4964734;28;20209;-86
2021/09/04 11:52:49;;;;;;;6.00;2.63;;;20.30;99.90;;;;;;4980879;28;20224;-88
2021/09/04 11:55:17;;;;;;;5.10;2.57;;;20.40;99.90;;;;;;4980948;28;20205;-86
2021/09/04 11:57:48;;;;;;;5.03;2.67;;;20.60;99.90;;;;;;4982557;28;20220;-84
2021/09/04 12:00:18;;;;;;;4.73;2.60;;;20.80;99.90;;;;;;4956807;28;20232;-89
2021/09/04 12:02:50;;;;;;;4.97;2.33;;;20.00;99.90;;;;;;4980836;28;20228;-87
2021/09/04 12:05:18;;;;;;;5.97;2.57;;;19.80;99.90;;;;;;4982121;28;21361;-89
2021/09/04 12:07:44;;;;;;;4.10;2.73;;;19.80;99.90;;;;;;4960589;28;20247;-86
2021/09/04 12:10:11;;;;;;;4.47;2.40;;;19.60;99.90;;;;;;4964391;28;20216;-90
2021/09/04 12:12:39;;;;;;;5.03;2.70;;;19.60;99.90;;;;;;4949192;28;20201;-90
2021/09/04 12:15:09;;;;;;;6.63;3.20;;;19.70;99.90;;;;;;4964610;28;20694;-86
2021/09/04 12:17:56;;;;;;;6.90;2.70;;;19.90;99.90;;;;;;4979964;28;20708;-86
2021/09/04 12:20:46;;;;;;;6.40;2.80;;;20.00;99.90;;;;;;4964129;28;20240;-88
2021/09/04 12:23:23;;;;;;;6.13;2.70;;;19.80;99.90;;;;;;4980069;28;20224;-88
2021/09/04 12:25:52;;;;;;;7.70;3.10;;;20.00;99.90;;;;;;4963963;28;20220;-88
2021/09/04 12:28:23;;;;;;;5.87;2.27;;;20.10;99.90;;;;;;4980456;28;20232;-85
2021/09/04 12:31:10;;;;;;;3.87;2.07;;;20.00;99.90;;;;;;4974532;28;20801;-87
2021/09/04 12:33:51;;;;;;;5.70;2.30;;;19.90;99.90;;;;;;4979620;28;20247;-86
2021/09/04 12:36:26;;;;;;;4.87;2.23;;;19.80;99.90;;;;;;4964601;28;20336;-86
2021/09/04 12:38:53;;;;;;;5.43;2.77;;;19.60;99.90;;;;;;4978588;28;20231;-85
2021/09/04 12:41:28;;;;;;;7.70;2.77;;;19.90;99.90;;;;;;4979804;28;20291;-86
2021/09/04 12:44:00;;;;;;;4.50;2.33;;;19.80;99.90;;;;;;4980258;28;20213;-86
2021/09/04 12:46:41;;;;;;;3.77;2.23;;;19.60;99.90;;;;;;4980138;28;20228;-87